createdAt,value
2019-05-07T00:01:23.287Z,12.60
2019-05-07T00:03:52.892Z,12.60
2019-05-07T00:06:20.410Z,12.60
2019-05-07T00:08:48.088Z,12.60
2019-05-07T00:11:15.568Z,12.60
2019-05-07T00:13:44.434Z,12.60
2019-05-07T00:16:12.803Z,12.60
2019-05-07T00:18:42.732Z,12.60
2019-05-07T00:21:09.621Z,12.60
2019-05-07T00:23:37.037Z,12.60
2019-05-07T00:26:04.571Z,12.90
2019-05-07T00:28:32.570Z,12.50
2019-05-07T00:31:00.043Z,12.60
2019-05-07T00:33:27.919Z,12.50
2019-05-07T00:36:17.727Z,12.50
2019-05-07T00:38:48.215Z,12.50
2019-05-07T00:41:31.963Z,12.50
2019-05-07T00:43:59.879Z,12.40
2019-05-07T00:46:32.027Z,10.90
2019-05-07T00:48:59.487Z,12.30
2019-05-07T00:51:29.395Z,12.20
2019-05-07T00:53:57.013Z,12.20
2019-05-07T00:56:24.350Z,12.10
2019-05-07T00:58:52.834Z,12.00
2019-05-07T01:01:22.529Z,11.90
2019-05-07T01:03:49.642Z,11.90
2019-05-07T01:06:17.161Z,11.80
2019-05-07T01:08:44.543Z,11.80
2019-05-07T01:11:13.136Z,11.70
2019-05-07T01:13:42.958Z,11.70
2019-05-07T01:16:10.005Z,11.60
2019-05-07T01:18:37.378Z,11.60
2019-05-07T01:21:04.938Z,11.50
2019-05-07T01:23:32.355Z,11.50
2019-05-07T01:25:59.734Z,11.50
2019-05-07T01:28:27.277Z,11.50
2019-05-07T01:30:54.685Z,11.40
2019-05-07T01:33:43.692Z,11.40
2019-05-07T01:36:14.948Z,11.40
2019-05-07T01:38:42.783Z,11.40
2019-05-07T01:41:12.355Z,11.30
2019-05-07T01:43:39.614Z,11.30
2019-05-07T01:46:06.972Z,11.30
2019-05-07T01:48:34.310Z,11.20
2019-05-07T01:51:03.378Z,11.20
2019-05-07T01:53:32.356Z,11.20
2019-05-07T01:55:59.980Z,11.20
2019-05-07T01:58:27.417Z,11.10
2019-05-07T02:00:54.950Z,11.10
2019-05-07T02:03:44.788Z,11.10
2019-05-07T02:06:32.755Z,11.10
2019-05-07T02:09:09.979Z,11.10
2019-05-07T02:11:42.130Z,11.10
2019-05-07T02:14:09.104Z,11.00
2019-05-07T02:16:36.617Z,11.00
2019-05-07T02:19:03.975Z,11.00
2019-05-07T02:21:32.970Z,11.00
2019-05-07T02:24:00.624Z,11.00
2019-05-07T02:26:28.008Z,11.00
2019-05-07T02:28:55.332Z,11.00
2019-05-07T02:31:23.408Z,10.90
2019-05-07T02:33:53.789Z,11.00
2019-05-07T02:36:23.395Z,10.90
2019-05-07T02:38:55.161Z,10.90
2019-05-07T02:41:26.192Z,10.90
2019-05-07T02:43:53.968Z,10.90
2019-05-07T02:46:36.751Z,10.80
2019-05-07T02:49:14.475Z,10.90
2019-05-07T02:51:53.123Z,10.80
2019-05-07T02:54:26.253Z,10.80
2019-05-07T02:56:53.761Z,10.80
2019-05-07T02:59:23.353Z,10.80
2019-05-07T03:01:53.459Z,10.80
2019-05-07T03:04:19.751Z,10.80
2019-05-07T03:06:47.173Z,10.80
2019-05-07T03:09:14.882Z,10.80
2019-05-07T03:11:43.527Z,10.80
2019-05-07T03:14:13.586Z,10.80
2019-05-07T03:16:45.418Z,10.80
2019-05-07T03:19:13.085Z,10.80
2019-05-07T03:21:55.164Z,10.80
2019-05-07T03:24:38.686Z,10.80
2019-05-07T03:27:06.175Z,10.70
2019-05-07T03:29:34.425Z,10.80
2019-05-07T03:32:39.041Z,10.70
2019-05-07T03:35:16.865Z,10.70
2019-05-07T03:37:44.977Z,10.70
2019-05-07T03:40:14.244Z,10.70
2019-05-07T03:42:43.979Z,10.70
2019-05-07T03:45:33.650Z,10.70
2019-05-07T03:48:26.508Z,10.70
2019-05-07T03:50:53.918Z,10.70
2019-05-07T03:53:23.145Z,10.70
2019-05-07T03:55:53.357Z,10.80
2019-05-07T03:58:23.224Z,10.80
2019-05-07T04:00:49.120Z,10.70
2019-05-07T04:03:19.397Z,10.70
2019-05-07T04:05:45.849Z,10.70
2019-05-07T04:08:13.530Z,10.70
2019-05-07T04:10:43.811Z,10.70
2019-05-07T04:13:13.223Z,10.70
2019-05-07T04:15:43.457Z,10.70
2019-05-07T04:18:09.119Z,10.70
2019-05-07T04:20:36.537Z,10.70
2019-05-07T04:23:04.417Z,10.70
2019-05-07T04:25:38.720Z,10.70
2019-05-07T04:28:28.352Z,10.80
2019-05-07T04:30:56.846Z,10.80
2019-05-07T04:33:26.489Z,10.80
2019-05-07T04:36:03.646Z,10.80
2019-05-07T04:38:33.475Z,10.80
2019-05-07T04:41:03.600Z,10.80
2019-05-07T04:43:29.590Z,10.80
2019-05-07T04:45:56.994Z,10.80
2019-05-07T04:48:24.340Z,10.90
2019-05-07T04:50:56.851Z,10.80
2019-05-07T04:53:24.317Z,10.90
2019-05-07T04:55:53.581Z,10.90
2019-05-07T04:58:23.689Z,10.90
2019-05-07T05:00:50.432Z,10.90
2019-05-07T05:03:23.978Z,13.90
2019-05-07T05:05:53.266Z,10.90
2019-05-07T05:08:23.422Z,10.90
2019-05-07T05:10:50.184Z,10.90
2019-05-07T05:13:17.540Z,11.00
2019-05-07T05:15:44.972Z,11.00
2019-05-07T05:18:12.852Z,11.00
2019-05-07T05:20:55.910Z,11.00
2019-05-07T05:23:45.769Z,11.00
2019-05-07T05:26:13.161Z,11.10
2019-05-07T05:28:41.866Z,11.10
2019-05-07T05:31:09.766Z,11.10
2019-05-07T05:33:37.115Z,11.10
2019-05-07T05:36:04.516Z,11.10
2019-05-07T05:38:33.124Z,11.90
2019-05-07T05:41:02.740Z,11.20
2019-05-07T05:44:02.402Z,11.30
2019-05-07T05:46:31.974Z,11.30
2019-05-07T05:48:59.592Z,11.30
2019-05-07T05:51:45.377Z,11.40
2019-05-07T05:54:35.456Z,11.40
2019-05-07T05:57:23.205Z,11.50
2019-05-07T06:00:02.412Z,11.50
2019-05-07T06:02:45.013Z,11.50
2019-05-07T06:05:34.450Z,11.60
2019-05-07T06:08:18.928Z,11.70
2019-05-07T06:10:57.458Z,12.00
2019-05-07T06:15:29.095Z,11.70
2019-05-07T06:18:20.431Z,11.80
2019-05-07T06:20:52.276Z,11.90
2019-05-07T06:23:33.019Z,11.90
2019-05-07T06:26:04.828Z,11.90
2019-05-07T06:28:33.021Z,11.90
2019-05-07T06:31:02.155Z,12.10
2019-05-07T06:33:32.281Z,12.10
2019-05-07T06:35:59.474Z,12.10
2019-05-07T06:38:28.728Z,12.20
2019-05-07T06:41:18.721Z,12.20
2019-05-07T06:43:51.995Z,12.30
2019-05-07T06:46:19.348Z,12.40
2019-05-07T06:48:46.828Z,12.40
2019-05-07T06:51:15.976Z,12.50
2019-05-07T06:53:43.676Z,12.60
2019-05-07T06:56:12.198Z,12.70
2019-05-07T06:59:08.534Z,12.70
2019-05-07T07:01:50.296Z,12.20
2019-05-07T07:04:35.926Z,12.90
2019-05-07T07:07:36.908Z,13.00
2019-05-07T07:10:26.275Z,13.10
2019-05-07T07:12:53.678Z,13.10
2019-05-07T07:15:23.140Z,13.20
2019-05-07T07:17:52.278Z,13.20
2019-05-07T07:20:21.711Z,13.40
2019-05-07T07:22:48.908Z,13.40
2019-05-07T07:26:36.198Z,13.50
2019-05-07T07:29:04.474Z,13.60
2019-05-07T07:31:38.198Z,13.60
2019-05-07T07:34:06.287Z,13.70
2019-05-07T07:36:39.566Z,13.80
2019-05-07T07:39:07.465Z,13.90
2019-05-07T07:41:48.547Z,13.90
2019-05-07T07:44:16.053Z,14.00
2019-05-07T07:46:43.598Z,14.10
2019-05-07T07:49:14.747Z,14.10
2019-05-07T07:51:44.505Z,14.20
2019-05-07T07:54:09.622Z,14.20
2019-05-07T07:56:56.850Z,14.20
2019-05-07T07:59:52.942Z,14.20
2019-05-07T08:02:44.997Z,14.20
2019-05-07T08:05:12.690Z,14.30
2019-05-07T08:07:42.456Z,14.40
2019-05-07T08:10:10.182Z,14.40
2019-05-07T08:12:37.591Z,14.50
2019-05-07T08:15:17.260Z,14.50
2019-05-07T08:17:35.131Z,14.50
2019-05-07T08:20:02.743Z,14.50
2019-05-07T08:22:30.309Z,14.60
2019-05-07T08:24:57.785Z,14.70
2019-05-07T08:27:25.131Z,14.90
2019-05-07T08:29:52.630Z,14.80
2019-05-07T08:32:32.519Z,14.80
2019-05-07T08:35:24.997Z,15.00
2019-05-07T08:37:52.469Z,15.10
2019-05-07T08:40:21.946Z,15.20
2019-05-07T08:42:49.257Z,15.40
2019-05-07T08:45:34.668Z,15.50
2019-05-07T08:48:05.306Z,15.60
2019-05-07T08:50:32.825Z,15.80
2019-05-07T08:53:02.662Z,15.90
2019-05-07T08:56:42.506Z,16.10
2019-05-07T08:59:12.234Z,16.30
2019-05-07T09:01:43.070Z,16.50
2019-05-07T09:04:10.080Z,16.60
2019-05-07T09:06:37.534Z,16.80
2019-05-07T09:09:09.682Z,16.90
2019-05-07T09:11:37.340Z,17.10
2019-05-07T09:14:04.852Z,17.20
2019-05-07T09:16:32.414Z,17.50
2019-05-07T09:19:02.048Z,17.80
2019-05-07T09:21:29.214Z,18.00
2019-05-07T09:23:56.735Z,18.50
2019-05-07T09:26:32.343Z,19.00
2019-05-07T09:29:22.255Z,19.70
2019-05-07T09:32:08.132Z,20.50
2019-05-07T09:34:41.676Z,21.50
2019-05-07T09:37:12.417Z,22.50
2019-05-07T09:39:39.991Z,23.40
2019-05-07T09:42:07.457Z,24.10
2019-05-07T09:44:34.871Z,24.80
2019-05-07T09:47:02.620Z,25.40
2019-05-07T09:49:32.527Z,26.00
2019-05-07T09:51:59.629Z,26.40
2019-05-07T09:56:48.195Z,27.00
2019-05-07T09:59:15.671Z,26.00
2019-05-07T10:01:43.185Z,27.40
2019-05-07T10:04:10.669Z,27.40
2019-05-07T10:06:38.289Z,27.40
2019-05-07T10:09:05.952Z,27.10
2019-05-07T10:11:42.128Z,26.90
2019-05-07T10:14:12.408Z,26.70
2019-05-07T10:16:46.350Z,26.50
2019-05-07T10:19:14.931Z,26.40
2019-05-07T10:21:43.243Z,26.40
2019-05-07T10:24:12.858Z,26.60
2019-05-07T10:26:40.226Z,26.90
2019-05-07T10:29:08.111Z,27.20
2019-05-07T10:31:35.525Z,27.50
2019-05-07T10:34:03.094Z,27.70
2019-05-07T10:36:32.004Z,27.70
2019-05-07T10:38:59.726Z,27.60
2019-05-07T10:41:27.096Z,27.30
2019-05-07T10:43:54.534Z,27.00
2019-05-07T10:46:31.956Z,26.60
2019-05-07T10:49:06.026Z,26.10
2019-05-07T10:51:33.351Z,25.70
2019-05-07T10:54:02.229Z,25.30
2019-05-07T10:56:29.834Z,24.90
2019-05-07T10:58:57.206Z,24.60
2019-05-07T11:01:37.422Z,24.30
2019-05-07T11:04:04.786Z,24.00
2019-05-07T11:06:32.431Z,23.70
2019-05-07T11:08:59.913Z,23.40
2019-05-07T11:11:27.754Z,23.20
2019-05-07T11:13:56.093Z,22.00
2019-05-07T11:16:25.956Z,22.80
2019-05-07T11:18:53.380Z,22.70
2019-05-07T11:21:29.797Z,22.60
2019-05-07T11:23:58.612Z,22.40
2019-05-07T11:26:26.091Z,22.30
2019-05-07T11:28:53.604Z,22.20
2019-05-07T11:31:22.384Z,22.20
2019-05-07T11:33:52.006Z,22.10
2019-05-07T11:36:19.419Z,22.00
2019-05-07T11:38:46.934Z,21.90
2019-05-07T11:41:14.289Z,21.80
2019-05-07T11:44:01.640Z,21.70
2019-05-07T11:46:44.481Z,21.60
2019-05-07T11:49:19.310Z,21.40
2019-05-07T11:52:06.214Z,21.30
2019-05-07T11:56:47.980Z,21.10
2019-05-07T11:59:15.350Z,21.20
2019-05-07T12:01:49.282Z,21.00
2019-05-07T12:04:16.726Z,21.00
2019-05-07T12:06:44.438Z,20.90
2019-05-07T12:09:12.192Z,20.90
2019-05-07T12:11:39.845Z,20.90
2019-05-07T12:14:07.294Z,20.90
2019-05-07T12:16:35.550Z,20.90
2019-05-07T12:19:03.140Z,20.90
2019-05-07T12:22:17.381Z,20.90
2019-05-07T12:24:45.794Z,21.00
2019-05-07T12:27:13.372Z,21.00
2019-05-07T12:29:42.369Z,21.00
2019-05-07T12:32:22.131Z,21.00
2019-05-07T12:34:54.060Z,21.00
2019-05-07T12:37:22.520Z,21.10
2019-05-07T12:39:50.119Z,21.10
2019-05-07T12:42:17.473Z,21.10
2019-05-07T12:44:44.835Z,21.00
2019-05-07T12:47:12.296Z,21.20
2019-05-07T12:49:39.781Z,21.20
2019-05-07T12:52:32.074Z,21.30
2019-05-07T12:56:45.215Z,21.40
2019-05-07T12:59:12.982Z,18.50
2019-05-07T13:02:16.703Z,21.50
2019-05-07T13:04:33.387Z,21.50
2019-05-07T13:07:21.977Z,21.70
2019-05-07T13:09:51.703Z,21.70
2019-05-07T13:12:21.622Z,21.80
2019-05-07T13:14:48.734Z,21.80
2019-05-07T13:17:16.213Z,21.90
2019-05-07T13:19:43.781Z,21.90
2019-05-07T13:22:13.052Z,21.90
2019-05-07T13:24:42.370Z,21.90
2019-05-07T13:27:09.867Z,22.00
2019-05-07T13:29:37.303Z,22.00
2019-05-07T13:32:05.394Z,22.00
2019-05-07T13:34:34.088Z,22.00
2019-05-07T13:37:07.762Z,21.90
2019-05-07T13:39:39.292Z,21.90
2019-05-07T13:42:29.089Z,21.80
2019-05-07T13:45:02.836Z,21.80
2019-05-07T13:47:35.669Z,21.80
2019-05-07T13:50:03.998Z,21.70
2019-05-07T13:52:32.926Z,21.70
2019-05-07T13:55:00.627Z,21.70
2019-05-07T13:57:28.084Z,21.80
2019-05-07T13:59:55.748Z,21.70
2019-05-07T14:02:25.774Z,21.80
2019-05-07T14:04:53.471Z,21.80
2019-05-07T14:07:21.753Z,21.80
2019-05-07T14:09:49.906Z,21.80
2019-05-07T14:12:17.413Z,21.80
2019-05-07T14:14:45.584Z,21.80
2019-05-07T14:17:13.133Z,21.70
2019-05-07T14:19:42.280Z,21.70
2019-05-07T14:22:18.040Z,21.70
2019-05-07T14:24:39.362Z,21.60
2019-05-07T14:27:06.785Z,21.60
2019-05-07T14:29:34.371Z,21.50
2019-05-07T14:32:39.377Z,21.50
2019-05-07T14:35:17.704Z,21.50
2019-05-07T14:37:48.846Z,21.50
2019-05-07T14:40:16.282Z,21.50
2019-05-07T14:42:48.306Z,21.50
2019-05-07T14:45:15.967Z,21.60
2019-05-07T14:47:46.591Z,21.50
2019-05-07T14:50:14.234Z,21.50
2019-05-07T14:52:43.249Z,21.60
2019-05-07T14:55:12.818Z,21.60
2019-05-07T14:57:42.080Z,21.70
2019-05-07T15:00:12.214Z,21.70
2019-05-07T15:02:41.962Z,21.70
2019-05-07T15:05:11.806Z,21.80
2019-05-07T15:07:38.943Z,21.80
2019-05-07T15:10:06.750Z,21.80
2019-05-07T15:12:34.167Z,21.80
2019-05-07T15:15:02.223Z,21.80
2019-05-07T15:17:55.527Z,21.90
2019-05-07T15:20:23.058Z,21.80
2019-05-07T15:23:02.738Z,21.90
2019-05-07T15:25:31.972Z,21.90
2019-05-07T15:28:01.771Z,21.90
2019-05-07T15:30:37.677Z,21.90
2019-05-07T15:33:05.076Z,21.90
2019-05-07T15:35:32.539Z,21.90
2019-05-07T15:38:02.278Z,21.90
2019-05-07T15:40:29.339Z,21.90
2019-05-07T15:42:56.837Z,21.90
2019-05-07T15:45:24.323Z,21.90
2019-05-07T15:47:53.646Z,21.90
2019-05-07T15:50:23.401Z,21.90
2019-05-07T15:53:02.129Z,22.00
2019-05-07T15:55:29.637Z,22.00
2019-05-07T15:57:57.645Z,22.00
2019-05-07T16:00:27.124Z,22.10
2019-05-07T16:03:03.444Z,22.10
2019-05-07T16:05:31.860Z,22.10
2019-05-07T16:08:01.756Z,22.10
2019-05-07T16:10:32.326Z,22.10
2019-05-07T16:12:59.893Z,22.10
2019-05-07T16:15:27.429Z,22.00
2019-05-07T16:17:59.324Z,20.40
2019-05-07T16:20:26.728Z,22.00
2019-05-07T16:23:11.380Z,21.90
2019-05-07T16:25:27.493Z,21.90
2019-05-07T16:27:54.951Z,21.80
2019-05-07T16:30:22.902Z,21.80
2019-05-07T16:32:53.367Z,21.60
2019-05-07T16:35:19.843Z,21.60
2019-05-07T16:37:47.264Z,21.50
2019-05-07T16:40:14.859Z,21.50
2019-05-07T16:42:42.817Z,21.40
2019-05-07T16:45:13.032Z,21.30
2019-05-07T16:47:40.300Z,21.30
2019-05-07T16:50:08.472Z,21.10
2019-05-07T16:52:36.162Z,21.10
2019-05-07T16:57:12.225Z,21.00
2019-05-07T16:59:39.991Z,20.10
2019-05-07T17:02:14.084Z,19.80
2019-05-07T17:05:02.980Z,20.70
2019-05-07T17:07:32.153Z,20.60
2019-05-07T17:09:59.716Z,20.60
2019-05-07T17:12:27.257Z,20.50
2019-05-07T17:14:54.722Z,20.40
2019-05-07T17:17:22.449Z,20.40
2019-05-07T17:19:53.490Z,20.30
2019-05-07T17:22:19.306Z,20.20
2019-05-07T17:24:46.758Z,20.20
2019-05-07T17:27:14.211Z,20.10
2019-05-07T17:29:42.939Z,20.00
2019-05-07T17:32:12.254Z,19.80
2019-05-07T17:34:41.976Z,19.80
2019-05-07T17:37:09.131Z,19.80
2019-05-07T17:39:36.570Z,19.70
2019-05-07T17:42:04.130Z,19.60
2019-05-07T17:44:32.324Z,19.50
2019-05-07T17:47:01.963Z,19.40
2019-05-07T17:49:29.692Z,19.40
2019-05-07T17:51:57.294Z,19.30
2019-05-07T17:54:24.684Z,19.30
2019-05-07T17:56:52.673Z,19.20
2019-05-07T17:59:20.326Z,19.20
2019-05-07T18:02:06.980Z,19.10
2019-05-07T18:04:47.545Z,19.10
2019-05-07T18:07:05.670Z,19.00
2019-05-07T18:09:33.076Z,18.90
2019-05-07T18:12:00.480Z,18.90
2019-05-07T18:14:27.928Z,20.60
2019-05-07T18:17:14.941Z,18.80
2019-05-07T18:19:43.237Z,18.70
2019-05-07T18:22:12.674Z,18.70
2019-05-07T18:24:41.942Z,18.60
2019-05-07T18:27:13.167Z,18.50
2019-05-07T18:29:42.723Z,18.50
2019-05-07T18:32:12.023Z,18.50
2019-05-07T18:34:39.482Z,18.40
2019-05-07T18:37:06.984Z,18.40
2019-05-07T18:39:34.520Z,18.30
2019-05-07T18:42:02.770Z,18.20
2019-05-07T18:44:30.751Z,18.20
2019-05-07T18:46:58.520Z,18.20
2019-05-07T18:49:26.180Z,18.10
2019-05-07T18:51:54.639Z,14.90
2019-05-07T18:54:30.489Z,18.00
2019-05-07T18:56:54.493Z,18.00
2019-05-07T18:59:24.026Z,17.90
2019-05-07T19:01:52.697Z,17.80
2019-05-07T19:04:21.963Z,17.90
2019-05-07T19:06:51.803Z,17.80
2019-05-07T19:09:19.593Z,17.80
2019-05-07T19:11:46.997Z,17.70
2019-05-07T19:14:14.586Z,17.70
2019-05-07T19:16:43.049Z,17.70
2019-05-07T19:19:12.491Z,17.60
2019-05-07T19:21:42.169Z,17.60
2019-05-07T19:24:48.878Z,17.50
2019-05-07T19:27:16.500Z,17.50
2019-05-07T19:29:45.835Z,17.50
2019-05-07T19:32:25.032Z,17.40
2019-05-07T19:34:53.435Z,17.30
2019-05-07T19:37:23.752Z,17.30
2019-05-07T19:39:52.366Z,17.30
2019-05-07T19:42:20.362Z,17.20
2019-05-07T19:44:48.487Z,17.20
2019-05-07T19:47:17.084Z,17.10
2019-05-07T19:49:49.431Z,17.10
2019-05-07T19:52:18.415Z,17.10
2019-05-07T19:55:00.516Z,17.10
2019-05-07T19:58:05.458Z,17.00
2019-05-07T20:00:41.738Z,17.00
2019-05-07T20:03:08.895Z,16.90
2019-05-07T20:05:39.056Z,17.00
2019-05-07T20:08:16.542Z,15.00
2019-05-07T20:10:53.925Z,16.80
2019-05-07T20:13:21.404Z,16.80
2019-05-07T20:15:53.930Z,16.70
2019-05-07T20:18:21.988Z,16.70
2019-05-07T20:20:49.640Z,16.70
2019-05-07T20:23:17.030Z,16.60
2019-05-07T20:25:44.545Z,16.60
2019-05-07T20:28:12.763Z,16.50
2019-05-07T20:30:41.857Z,16.50
2019-05-07T20:33:09.463Z,16.50
2019-05-07T20:35:39.340Z,16.50
2019-05-07T20:38:06.250Z,16.50
2019-05-07T20:40:33.791Z,16.40
2019-05-07T20:43:01.925Z,16.30
2019-05-07T20:45:31.812Z,16.30
2019-05-07T20:47:58.904Z,15.30
2019-05-07T20:50:26.341Z,16.20
2019-05-07T20:52:53.806Z,16.20
2019-05-07T20:55:34.081Z,16.20
2019-05-07T20:58:03.081Z,16.10
2019-05-07T21:00:32.441Z,16.10
2019-05-07T21:03:18.069Z,16.10
2019-05-07T21:05:45.484Z,16.00
2019-05-07T21:08:12.899Z,16.00
2019-05-07T21:10:42.456Z,16.00
2019-05-07T21:13:23.996Z,16.00
2019-05-07T21:15:39.006Z,15.90
2019-05-07T21:18:06.657Z,15.90
2019-05-07T21:20:34.087Z,15.80
2019-05-07T21:23:02.680Z,15.80
2019-05-07T21:25:42.236Z,15.80
2019-05-07T21:28:02.004Z,15.70
2019-05-07T21:30:28.913Z,15.70
2019-05-07T21:32:56.351Z,15.70
2019-05-07T21:35:24.030Z,15.60
2019-05-07T21:37:52.429Z,15.60
2019-05-07T21:40:22.321Z,15.60
2019-05-07T21:42:49.424Z,15.60
2019-05-07T21:45:17.069Z,15.50
2019-05-07T21:47:44.419Z,14.80
2019-05-07T21:50:12.431Z,15.40
2019-05-07T21:52:42.551Z,15.40
2019-05-07T21:55:28.926Z,15.40
2019-05-07T21:58:03.074Z,15.30
2019-05-07T22:01:02.421Z,15.30
2019-05-07T22:03:29.782Z,15.30
2019-05-07T22:05:59.078Z,15.20
2019-05-07T22:08:26.496Z,15.20
2019-05-07T22:10:53.886Z,14.50
2019-05-07T22:13:22.074Z,15.10
2019-05-07T22:15:49.916Z,15.10
2019-05-07T22:18:17.370Z,15.10
2019-05-07T22:20:45.220Z,15.00
2019-05-07T22:23:13.288Z,15.00
2019-05-07T22:25:42.211Z,15.00
2019-05-07T22:28:09.753Z,14.90
2019-05-07T22:30:45.262Z,15.00
2019-05-07T22:33:19.146Z,15.00
2019-05-07T22:35:46.624Z,14.90
2019-05-07T22:38:14.145Z,14.90
2019-05-07T22:40:43.401Z,14.90
2019-05-07T22:43:12.525Z,14.80
2019-05-07T22:45:40.201Z,14.80
2019-05-07T22:48:07.729Z,14.80
2019-05-07T22:50:35.116Z,14.70
2019-05-07T22:53:02.675Z,14.70
2019-05-07T22:55:32.531Z,14.70
2019-05-07T22:58:14.155Z,14.70
2019-05-07T23:00:47.317Z,14.60
2019-05-07T23:03:14.758Z,14.60
2019-05-07T23:05:44.672Z,14.60
2019-05-07T23:08:12.756Z,14.60
2019-05-07T23:10:42.144Z,14.60
2019-05-07T23:13:09.667Z,14.50
2019-05-07T23:15:37.028Z,14.50
2019-05-07T23:18:04.572Z,13.20
2019-05-07T23:20:32.103Z,13.00
2019-05-07T23:22:59.553Z,14.40
2019-05-07T23:25:26.911Z,14.50
2019-05-07T23:27:54.379Z,14.40
2019-05-07T23:30:22.383Z,14.40
2019-05-07T23:32:49.980Z,14.30
2019-05-07T23:35:17.458Z,14.30
2019-05-07T23:37:44.827Z,14.30
2019-05-07T23:40:28.657Z,16.50
2019-05-07T23:42:57.790Z,14.20
2019-05-07T23:45:25.118Z,14.30
2019-05-07T23:47:52.421Z,14.70
2019-05-07T23:50:19.965Z,14.20
2019-05-07T23:52:47.343Z,14.20
2019-05-07T23:55:14.699Z,14.20
2019-05-07T23:57:43.056Z,14.20
